sensor_id;sensor_type;location;lat;lon;timestamp;pressure;altitude;pressure_sealevel;temperature;humidity
29163;BME280;20331;53.144;8.208;2022-08-21T00:09:50;101453.16;;;17.84;85.38
29163;BME280;20331;53.144;8.208;2022-08-21T00:20:14;101438.81;;;17.77;85.79
29163;BME280;20331;53.144;8.208;2022-08-21T00:30:37;101441.47;;;18.07;82.59
29163;BME280;20331;53.144;8.208;2022-08-21T00:41:00;101437.84;;;17.57;86.17
29163;BME280;20331;53.144;8.208;2022-08-21T00:51:52;101434.19;;;17.49;87.58
29163;BME280;20331;53.144;8.208;2022-08-21T01:02:16;101433.75;;;17.44;88.38
29163;BME280;20331;53.144;8.208;2022-08-21T01:12:37;101424.44;;;17.29;88.69
29163;BME280;20331;53.144;8.208;2022-08-21T01:23:03;101434.88;;;17.31;88.10
29163;BME280;20331;53.144;8.208;2022-08-21T01:33:25;101436.63;;;17.41;85.92
29163;BME280;20331;53.144;8.208;2022-08-21T01:43:47;101424.81;;;16.93;88.87
29163;BME280;20331;53.144;8.208;2022-08-21T01:54:09;101430.66;;;16.97;89.41
29163;BME280;20331;53.144;8.208;2022-08-21T02:04:31;101431.78;;;16.83;90.78
29163;BME280;20331;53.144;8.208;2022-08-21T02:14:53;101424.63;;;16.74;91.34
29163;BME280;20331;53.144;8.208;2022-08-21T02:25:16;101411.88;;;16.90;88.29
29163;BME280;20331;53.144;8.208;2022-08-21T02:35:40;101402.31;;;16.89;88.55
29163;BME280;20331;53.144;8.208;2022-08-21T02:46:05;101393.28;;;16.71;89.56
29163;BME280;20331;53.144;8.208;2022-08-21T02:56:26;101394.47;;;17.10;85.95
29163;BME280;20331;53.144;8.208;2022-08-21T03:06:52;101396.13;;;17.11;86.44
29163;BME280;20331;53.144;8.208;2022-08-21T03:17:13;101391.47;;;16.72;88.17
29163;BME280;20331;53.144;8.208;2022-08-21T03:27:35;101398.59;;;16.49;89.10
29163;BME280;20331;53.144;8.208;2022-08-21T03:37:59;101384.97;;;16.44;90.33
29163;BME280;20331;53.144;8.208;2022-08-21T03:48:21;101375.41;;;16.33;92.15
29163;BME280;20331;53.144;8.208;2022-08-21T03:58:43;101377.75;;;16.46;89.68
29163;BME280;20331;53.144;8.208;2022-08-21T04:09:05;101378.03;;;16.43;90.74
29163;BME280;20331;53.144;8.208;2022-08-21T04:19:26;101381.88;;;15.85;93.16
29163;BME280;20331;53.144;8.208;2022-08-21T04:29:50;101392.38;;;16.07;92.39
29163;BME280;20331;53.144;8.208;2022-08-21T04:40:13;101390.59;;;16.07;91.44
29163;BME280;20331;53.144;8.208;2022-08-21T04:50:36;101406.75;;;16.14;91.60
29163;BME280;20331;53.144;8.208;2022-08-21T05:01:00;101406.63;;;15.93;93.43
29163;BME280;20331;53.144;8.208;2022-08-21T05:11:22;101418.91;;;15.93;94.91
29163;BME280;20331;53.144;8.208;2022-08-21T05:21:46;101412.09;;;16.01;92.69
29163;BME280;20331;53.144;8.208;2022-08-21T05:32:10;101413.78;;;16.24;92.23
29163;BME280;20331;53.144;8.208;2022-08-21T05:42:32;101417.28;;;16.36;92.61
29163;BME280;20331;53.144;8.208;2022-08-21T05:52:53;101406.47;;;16.49;92.49
29163;BME280;20331;53.144;8.208;2022-08-21T06:03:30;101402.88;;;16.61;91.46
29163;BME280;20331;53.144;8.208;2022-08-21T06:13:52;101396.78;;;16.92;91.64
29163;BME280;20331;53.144;8.208;2022-08-21T06:24:13;101403.91;;;17.12;91.44
29163;BME280;20331;53.144;8.208;2022-08-21T06:34:36;101408.44;;;17.62;88.92
29163;BME280;20331;53.144;8.208;2022-08-21T06:44:59;101412.44;;;18.07;86.80
29163;BME280;20331;53.144;8.208;2022-08-21T06:55:20;101406.78;;;18.32;86.11
29163;BME280;20331;53.144;8.208;2022-08-21T07:05:46;101400.00;;;18.48;88.60
29163;BME280;20331;53.144;8.208;2022-08-21T07:16:08;101391.75;;;18.90;85.25
29163;BME280;20331;53.144;8.208;2022-08-21T07:26:29;101399.84;;;19.17;83.50
29163;BME280;20331;53.144;8.208;2022-08-21T07:36:51;101395.91;;;19.40;81.04
29163;BME280;20331;53.144;8.208;2022-08-21T07:47:13;101395.91;;;19.49;82.18
29163;BME280;20331;53.144;8.208;2022-08-21T07:57:34;101402.88;;;19.60;79.45
29163;BME280;20331;53.144;8.208;2022-08-21T08:07:56;101401.94;;;19.88;78.85
29163;BME280;20331;53.144;8.208;2022-08-21T08:18:18;101403.59;;;20.08;78.75
29163;BME280;20331;53.144;8.208;2022-08-21T08:28:39;101393.88;;;20.52;76.92
29163;BME280;20331;53.144;8.208;2022-08-21T08:39:03;101401.22;;;20.85;74.55
29163;BME280;20331;53.144;8.208;2022-08-21T08:49:34;101397.91;;;21.18;73.07
29163;BME280;20331;53.144;8.208;2022-08-21T09:00:03;101401.25;;;21.20;72.49
29163;BME280;20331;53.144;8.208;2022-08-21T09:31:53;101384.00;;;22.18;65.65
29163;BME280;20331;53.144;8.208;2022-08-21T09:42:22;101395.00;;;22.31;63.06
29163;BME280;20331;53.144;8.208;2022-08-21T09:52:48;101397.97;;;22.20;63.25
29163;BME280;20331;53.144;8.208;2022-08-21T10:03:21;101379.63;;;21.75;64.03
29163;BME280;20331;53.144;8.208;2022-08-21T10:24:31;101357.97;;;22.78;61.77
29163;BME280;20331;53.144;8.208;2022-08-21T10:35:03;101356.72;;;22.41;61.08
29163;BME280;20331;53.144;8.208;2022-08-21T10:45:36;101363.44;;;22.61;61.56
29163;BME280;20331;53.144;8.208;2022-08-21T11:06:27;101360.53;;;23.36;58.74
29163;BME280;20331;53.144;8.208;2022-08-21T11:17:11;101363.78;;;23.93;56.17
29163;BME280;20331;53.144;8.208;2022-08-21T11:27:56;101352.09;;;24.33;57.38
29163;BME280;20331;53.144;8.208;2022-08-21T11:38:45;101359.94;;;23.88;56.04
29163;BME280;20331;53.144;8.208;2022-08-21T11:49:36;101358.28;;;23.95;55.72
29163;BME280;20331;53.144;8.208;2022-08-21T12:00:22;101356.06;;;23.28;56.06
29163;BME280;20331;53.144;8.208;2022-08-21T12:11:06;101354.16;;;24.23;52.91
29163;BME280;20331;53.144;8.208;2022-08-21T12:21:28;101350.84;;;24.81;52.50
29163;BME280;20331;53.144;8.208;2022-08-21T12:32:02;101339.84;;;24.84;51.27
29163;BME280;20331;53.144;8.208;2022-08-21T12:42:45;101342.28;;;24.63;50.21
29163;BME280;20331;53.144;8.208;2022-08-21T13:03:47;101327.41;;;24.46;50.67
29163;BME280;20331;53.144;8.208;2022-08-21T13:14:36;101317.75;;;24.37;52.04
29163;BME280;20331;53.144;8.208;2022-08-21T13:25:13;101313.03;;;24.55;52.92
29163;BME280;20331;53.144;8.208;2022-08-21T13:46:10;101317.06;;;25.19;48.93
29163;BME280;20331;53.144;8.208;2022-08-21T13:56:45;101313.50;;;24.59;50.02
29163;BME280;20331;53.144;8.208;2022-08-21T14:07:17;101323.69;;;25.00;49.75
29163;BME280;20331;53.144;8.208;2022-08-21T14:17:44;101323.22;;;25.19;47.81
29163;BME280;20331;53.144;8.208;2022-08-21T14:28:24;101323.25;;;25.48;45.99
29163;BME280;20331;53.144;8.208;2022-08-21T14:38:48;101334.34;;;25.45;44.46
29163;BME280;20331;53.144;8.208;2022-08-21T14:49:10;101339.97;;;25.13;46.60
29163;BME280;20331;53.144;8.208;2022-08-21T14:59:33;101322.66;;;25.60;46.79
29163;BME280;20331;53.144;8.208;2022-08-21T15:09:55;101314.94;;;25.14;46.12
29163;BME280;20331;53.144;8.208;2022-08-21T15:20:17;101321.06;;;24.92;52.65
29163;BME280;20331;53.144;8.208;2022-08-21T15:30:40;101329.59;;;25.33;45.64
29163;BME280;20331;53.144;8.208;2022-08-21T15:41:03;101314.19;;;25.20;48.03
29163;BME280;20331;53.144;8.208;2022-08-21T15:51:25;101334.84;;;25.04;48.38
29163;BME280;20331;53.144;8.208;2022-08-21T16:01:51;101326.53;;;24.76;49.49
29163;BME280;20331;53.144;8.208;2022-08-21T16:12:21;101340.03;;;24.22;56.79
29163;BME280;20331;53.144;8.208;2022-08-21T16:22:44;101355.59;;;23.95;62.25
29163;BME280;20331;53.144;8.208;2022-08-21T16:33:06;101349.97;;;23.74;61.74
29163;BME280;20331;53.144;8.208;2022-08-21T16:43:29;101348.97;;;23.75;63.14
29163;BME280;20331;53.144;8.208;2022-08-21T16:53:52;101347.47;;;23.80;63.62
29163;BME280;20331;53.144;8.208;2022-08-21T17:04:14;101357.97;;;23.82;64.35
29163;BME280;20331;53.144;8.208;2022-08-21T17:14:36;101357.66;;;23.45;64.49
29163;BME280;20331;53.144;8.208;2022-08-21T17:24:58;101377.50;;;23.35;64.66
29163;BME280;20331;53.144;8.208;2022-08-21T17:35:20;101380.78;;;23.05;64.60
29163;BME280;20331;53.144;8.208;2022-08-21T17:45:43;101392.16;;;22.57;68.38
29163;BME280;20331;53.144;8.208;2022-08-21T17:56:06;101394.63;;;22.51;70.23
29163;BME280;20331;53.144;8.208;2022-08-21T18:06:28;101408.69;;;22.36;72.29
29163;BME280;20331;53.144;8.208;2022-08-21T18:16:49;101422.56;;;22.30;72.12
29163;BME280;20331;53.144;8.208;2022-08-21T18:27:12;101412.44;;;22.00;73.45
29163;BME280;20331;53.144;8.208;2022-08-21T18:37:35;101425.59;;;21.76;73.83
29163;BME280;20331;53.144;8.208;2022-08-21T18:47:57;101427.16;;;21.86;72.51
29163;BME280;20331;53.144;8.208;2022-08-21T18:58:19;101434.75;;;21.81;74.42
29163;BME280;20331;53.144;8.208;2022-08-21T19:08:41;101447.34;;;21.79;73.38
29163;BME280;20331;53.144;8.208;2022-08-21T19:19:02;101449.34;;;21.60;74.34
29163;BME280;20331;53.144;8.208;2022-08-21T19:29:25;101461.63;;;21.43;76.73
29163;BME280;20331;53.144;8.208;2022-08-21T19:40:07;101458.06;;;21.35;77.51
29163;BME280;20331;53.144;8.208;2022-08-21T19:50:29;101460.78;;;21.43;75.80
29163;BME280;20331;53.144;8.208;2022-08-21T20:00:52;101464.16;;;21.10;75.05
29163;BME280;20331;53.144;8.208;2022-08-21T20:11:26;101467.84;;;21.17;76.89
29163;BME280;20331;53.144;8.208;2022-08-21T20:21:51;101473.50;;;21.05;75.94
29163;BME280;20331;53.144;8.208;2022-08-21T20:32:16;101469.44;;;21.10;75.64
29163;BME280;20331;53.144;8.208;2022-08-21T20:42:41;101467.84;;;21.00;76.66
29163;BME280;20331;53.144;8.208;2022-08-21T20:53:12;101465.94;;;20.92;76.22
29163;BME280;20331;53.144;8.208;2022-08-21T21:03:40;101470.84;;;20.87;76.44
29163;BME280;20331;53.144;8.208;2022-08-21T21:14:09;101475.84;;;20.90;77.26
29163;BME280;20331;53.144;8.208;2022-08-21T21:35:22;101487.75;;;20.77;78.01
29163;BME280;20331;53.144;8.208;2022-08-21T21:46:08;101476.41;;;20.57;79.54
29163;BME280;20331;53.144;8.208;2022-08-21T22:07:25;101486.78;;;20.41;80.98
29163;BME280;20331;53.144;8.208;2022-08-21T22:18:05;101487.34;;;20.45;80.01
29163;BME280;20331;53.144;8.208;2022-08-21T22:28:31;101498.97;;;20.35;80.44
29163;BME280;20331;53.144;8.208;2022-08-21T22:38:55;101506.28;;;20.50;80.17
29163;BME280;20331;53.144;8.208;2022-08-21T22:49:41;101504.97;;;20.37;81.38
29163;BME280;20331;53.144;8.208;2022-08-21T23:00:14;101498.56;;;20.30;81.37
29163;BME280;20331;53.144;8.208;2022-08-21T23:10:40;101496.38;;;20.16;82.25
29163;BME280;20331;53.144;8.208;2022-08-21T23:31:45;101499.19;;;19.86;83.70
